Portada
METAR-TAF:

METAR-TAF

Aeropuertos :

Aeropuerto de Milán-Malpensa

Milán, Italia

latitud: 45-37N, longitud: 008-44E, altitud: 234 m

Observación

El informe se hizo hace 15 minutos, a las 08:50 UTC
Viento 2 kt con dirección variable
Temperatura 7°C
Humedad 57%
Presión 1025 hPa
Visibilidad 10 km o más
sin nubes por debajo de 1500 m y sin presencia de cumulonimbus.

METAR: LIMC 070850Z VRB02KT CAVOK 07/M01 Q1025 NOSIG

Hora: 10:05 (09:05 UTC)

Pronóstico

El informe se hizo hace 4 horas y 5 minutos, a las 05:00 UTC
Pronóstico válido del 07 a las 06 UTC al 08 a las 12 UTC
Viento 5 kt con dirección variable
Visibilidad 10 km o más
Nubes dispersas a una altura de 4000 ft

TAF: LIMC 070500Z 0706/0812 VRB05KT 9999 SCT040

Observaciones y pronósticos meteorológicos de más de 4000 aeropuertos (mensajes METAR y TAF).

Los puntos amarillos y rojos representan las estaciones disponibles.

Ponga el ratón en el punto deseado para ver el nombre de la estación.

Haga clic para ver las observaciones y los pronósticos meteorológicos.

Para cambiar el mapa : haga clic en los botones verdes con una cruz de color negro para hacer un zoom, en el botón verde con un guión para alejar o en las flechas verdes para mapas adyacentes.


METAR-TAF: